createdAt,value
2023-02-11T00:00:41.576Z,15.05
2023-02-11T00:02:46.135Z,15.98
2023-02-11T00:04:49.206Z,15.73
2023-02-11T00:06:50.615Z,16.38
2023-02-11T00:08:52.177Z,17.33
2023-02-11T00:10:55.333Z,15.15
2023-02-11T00:12:56.759Z,16.08
2023-02-11T00:14:58.149Z,16.35
2023-02-11T00:16:59.646Z,15.15
2023-02-11T00:19:02.369Z,15.45
2023-02-11T00:21:18.068Z,16.10
2023-02-11T00:23:19.467Z,15.35
2023-02-11T00:25:20.953Z,15.70
2023-02-11T00:27:22.437Z,15.23
2023-02-11T00:29:23.928Z,15.10
2023-02-11T00:31:25.884Z,16.52
2023-02-11T00:33:27.368Z,15.50
2023-02-11T00:35:28.970Z,15.40
2023-02-11T00:37:30.364Z,16.27
2023-02-11T00:39:31.926Z,15.13
2023-02-11T00:41:33.769Z,14.80
2023-02-11T00:43:35.834Z,15.95
2023-02-11T00:45:37.274Z,14.63
2023-02-11T00:47:38.687Z,16.48
2023-02-11T00:49:40.387Z,15.65
2023-02-11T00:51:42.049Z,15.55
2023-02-11T00:53:43.536Z,16.58
2023-02-11T00:55:44.931Z,15.15
2023-02-11T00:57:46.385Z,14.65
2023-02-11T00:59:47.830Z,15.82
2023-02-11T01:01:49.290Z,14.50
2023-02-11T01:03:51.058Z,16.20
2023-02-11T01:05:53.027Z,15.75
2023-02-11T01:07:54.512Z,14.43
2023-02-11T01:09:56.279Z,15.77
2023-02-11T01:11:57.670Z,14.65
2023-02-11T01:13:59.113Z,14.93
2023-02-11T01:16:01.011Z,14.52
2023-02-11T01:18:02.432Z,14.68
2023-02-11T01:20:07.966Z,14.98
2023-02-11T01:22:09.463Z,14.80
2023-02-11T01:24:10.831Z,15.52
2023-02-11T01:26:12.463Z,15.35
2023-02-11T01:28:23.367Z,13.85
2023-02-11T01:30:24.793Z,14.27
2023-02-11T01:32:26.271Z,13.80
2023-02-11T01:34:28.417Z,14.52
2023-02-11T01:36:29.847Z,14.43
2023-02-11T01:38:32.364Z,13.52
2023-02-11T01:40:34.289Z,14.85
2023-02-11T01:42:35.770Z,15.43
2023-02-11T01:44:40.010Z,15.13
2023-02-11T01:46:41.535Z,14.38
2023-02-11T01:48:50.651Z,14.40
2023-02-11T01:50:58.840Z,14.82
2023-02-11T01:53:20.711Z,13.35
2023-02-11T01:55:41.129Z,13.55
2023-02-11T01:57:47.271Z,15.50
2023-02-11T01:59:51.649Z,14.60
2023-02-11T02:01:58.463Z,13.40
2023-02-11T02:04:03.159Z,14.82
2023-02-11T02:06:10.903Z,13.90
2023-02-11T02:08:40.836Z,15.25
2023-02-11T02:10:46.134Z,14.75
2023-02-11T02:12:47.662Z,15.38
2023-02-11T02:14:49.065Z,13.93
2023-02-11T02:16:50.532Z,14.07
2023-02-11T02:19:39.456Z,15.07
2023-02-11T02:21:59.365Z,14.70
2023-02-11T02:24:15.927Z,14.82
2023-02-11T02:27:02.006Z,15.48
2023-02-11T02:29:23.262Z,14.85
2023-02-11T02:31:50.798Z,14.77
2023-02-11T02:34:11.388Z,14.75
2023-02-11T02:36:22.424Z,16.13
2023-02-11T02:38:30.370Z,15.90
2023-02-11T02:40:54.514Z,16.52
2023-02-11T02:42:57.731Z,16.13
2023-02-11T02:44:59.225Z,16.42
2023-02-11T02:47:00.685Z,15.90
2023-02-11T02:49:06.189Z,16.02
2023-02-11T02:51:57.845Z,15.65
2023-02-11T02:54:23.422Z,16.15
2023-02-11T02:56:28.884Z,15.50
2023-02-11T02:58:47.479Z,15.13
2023-02-11T03:01:21.396Z,16.17
2023-02-11T03:03:48.549Z,15.93
2023-02-11T03:06:00.036Z,14.85
2023-02-11T03:08:13.805Z,15.02
2023-02-11T03:10:18.883Z,16.08
2023-02-11T03:12:22.132Z,16.15
2023-02-11T03:14:26.754Z,15.00
2023-02-11T03:16:30.097Z,15.23
2023-02-11T03:18:35.218Z,15.40
2023-02-11T03:20:41.864Z,14.82
2023-02-11T03:22:55.604Z,15.77
2023-02-11T03:24:57.158Z,15.00
2023-02-11T03:27:04.693Z,16.40
2023-02-11T03:29:33.314Z,15.57
2023-02-11T03:31:47.640Z,14.73
2023-02-11T03:34:08.741Z,15.25
2023-02-11T03:36:15.795Z,14.75
2023-02-11T03:40:32.499Z,14.68
2023-02-11T03:42:47.953Z,13.65
2023-02-11T03:44:55.030Z,15.35
2023-02-11T03:49:04.974Z,15.05
2023-02-11T03:51:09.485Z,14.98
2023-02-11T03:53:13.008Z,16.10
2023-02-11T03:55:18.365Z,15.45
2023-02-11T03:57:19.823Z,15.98
2023-02-11T03:59:21.426Z,15.93
2023-02-11T04:01:22.954Z,15.05
2023-02-11T04:03:24.394Z,15.77
2023-02-11T04:05:25.894Z,14.32
2023-02-11T04:07:27.543Z,16.00
2023-02-11T04:09:28.887Z,16.98
2023-02-11T04:11:30.319Z,15.82
2023-02-11T04:13:31.756Z,15.02
2023-02-11T04:15:33.280Z,15.05
2023-02-11T04:17:34.840Z,16.13
2023-02-11T04:19:36.357Z,16.08
2023-02-11T04:21:37.743Z,16.00
2023-02-11T04:23:39.126Z,15.85
2023-02-11T04:25:40.515Z,17.95
2023-02-11T04:27:41.985Z,16.38
2023-02-11T04:29:43.372Z,15.77
2023-02-11T04:31:45.020Z,15.68
2023-02-11T04:33:46.436Z,16.58
2023-02-11T04:35:48.326Z,15.77
2023-02-11T04:37:49.847Z,16.70
2023-02-11T04:39:51.259Z,15.55
2023-02-11T04:41:52.609Z,16.27
2023-02-11T04:43:54.009Z,16.83
2023-02-11T04:45:58.855Z,15.90
2023-02-11T04:48:02.757Z,16.42
2023-02-11T04:50:04.885Z,16.30
2023-02-11T04:52:06.318Z,15.98
2023-02-11T04:54:08.481Z,15.32
2023-02-11T04:56:09.885Z,15.85
2023-02-11T04:58:11.221Z,17.02
2023-02-11T05:00:13.435Z,15.88
2023-02-11T05:02:14.850Z,15.30
2023-02-11T05:04:17.212Z,17.40
2023-02-11T05:06:18.764Z,16.17
2023-02-11T05:08:20.117Z,16.95
2023-02-11T05:10:21.601Z,15.88
2023-02-11T05:12:23.085Z,17.58
2023-02-11T05:14:24.468Z,17.25
2023-02-11T05:16:25.985Z,16.25
2023-02-11T05:18:27.401Z,15.40
2023-02-11T05:20:28.841Z,17.23
2023-02-11T05:22:30.387Z,16.20
2023-02-11T05:24:32.446Z,16.75
2023-02-11T05:26:33.887Z,16.50
2023-02-11T05:28:36.130Z,16.88
2023-02-11T05:30:37.587Z,16.58
2023-02-11T05:35:05.572Z,15.85
2023-02-11T05:37:06.989Z,17.10
2023-02-11T05:39:08.465Z,15.48
2023-02-11T05:41:10.855Z,16.08
2023-02-11T05:43:12.229Z,16.73
2023-02-11T05:45:13.645Z,17.80
2023-02-11T05:47:15.024Z,16.77
2023-02-11T05:49:17.454Z,16.40
2023-02-11T05:51:18.908Z,15.73
2023-02-11T05:53:20.348Z,15.00
2023-02-11T05:55:21.740Z,16.88
2023-02-11T05:57:23.262Z,17.25
2023-02-11T05:59:24.717Z,16.73
2023-02-11T06:01:26.574Z,16.25
2023-02-11T06:03:28.177Z,16.52
2023-02-11T06:05:29.680Z,17.10
2023-02-11T06:07:31.086Z,17.33
2023-02-11T06:09:32.451Z,17.08
2023-02-11T06:11:33.847Z,17.27
2023-02-11T06:13:36.176Z,17.15
2023-02-11T06:15:37.644Z,16.10
2023-02-11T06:17:39.107Z,17.92
2023-02-11T06:19:40.533Z,15.82
2023-02-11T06:21:44.289Z,16.55
2023-02-11T06:23:46.002Z,16.38
2023-02-11T06:25:47.410Z,16.88
2023-02-11T06:27:48.813Z,17.58
2023-02-11T06:29:52.330Z,17.15
2023-02-11T06:31:53.774Z,18.17
2023-02-11T06:33:55.236Z,17.38
2023-02-11T06:35:56.599Z,17.25
2023-02-11T06:37:57.992Z,16.90
2023-02-11T06:39:59.382Z,17.80
2023-02-11T06:42:00.739Z,17.83
2023-02-11T06:44:02.110Z,16.33
2023-02-11T06:46:03.626Z,18.13
2023-02-11T06:48:05.129Z,17.60
2023-02-11T06:50:08.308Z,17.60
2023-02-11T06:52:09.697Z,18.58
2023-02-11T06:54:12.489Z,17.45
2023-02-11T06:56:17.272Z,18.70
2023-02-11T06:58:18.623Z,16.95
2023-02-11T07:00:20.042Z,18.45
2023-02-11T07:02:21.559Z,19.55
2023-02-11T07:04:23.055Z,18.02
2023-02-11T07:06:27.898Z,17.98
2023-02-11T07:08:29.456Z,18.25
2023-02-11T07:10:30.856Z,18.13
2023-02-11T07:12:32.592Z,18.60
2023-02-11T07:14:34.015Z,17.60
2023-02-11T07:16:35.511Z,19.55
2023-02-11T07:18:37.179Z,15.68
2023-02-11T07:20:38.929Z,20.00
2023-02-11T07:22:40.296Z,18.80
2023-02-11T07:24:41.720Z,19.25
2023-02-11T07:26:43.158Z,17.48
2023-02-11T07:28:45.079Z,18.83
2023-02-11T07:30:46.517Z,18.92
2023-02-11T07:32:48.848Z,18.52
2023-02-11T07:34:50.222Z,18.88
2023-02-11T07:36:51.698Z,19.35
2023-02-11T07:38:53.093Z,19.77
2023-02-11T07:40:54.490Z,20.23
2023-02-11T07:42:55.844Z,21.13
2023-02-11T07:44:57.273Z,18.85
2023-02-11T07:46:59.513Z,20.48
2023-02-11T07:49:01.147Z,19.88
2023-02-11T07:51:10.052Z,19.80
2023-02-11T07:53:11.442Z,19.30
2023-02-11T07:55:12.878Z,20.05
2023-02-11T07:57:14.228Z,19.15
2023-02-11T07:59:16.038Z,20.13
2023-02-11T08:01:26.371Z,19.58
2023-02-11T08:03:27.910Z,21.63
2023-02-11T08:05:30.323Z,20.15
2023-02-11T08:07:32.259Z,19.98
2023-02-11T08:09:34.627Z,19.83
2023-02-11T08:11:36.360Z,20.73
2023-02-11T08:13:38.546Z,20.70
2023-02-11T08:15:39.935Z,20.83
2023-02-11T08:17:41.327Z,18.25
2023-02-11T08:19:42.968Z,20.42
2023-02-11T08:21:44.880Z,19.95
2023-02-11T08:23:46.976Z,22.08
2023-02-11T08:25:48.368Z,21.35
2023-02-11T08:27:49.845Z,20.23
2023-02-11T08:29:51.351Z,20.67
2023-02-11T08:31:52.843Z,20.85
2023-02-11T08:36:25.846Z,20.38
2023-02-11T08:38:27.295Z,21.20
2023-02-11T08:40:28.730Z,20.63
2023-02-11T08:42:30.247Z,19.92
2023-02-11T08:44:31.637Z,20.83
2023-02-11T08:46:33.205Z,22.63
2023-02-11T08:48:34.981Z,20.23
2023-02-11T08:50:39.099Z,20.50
2023-02-11T08:52:40.567Z,22.95
2023-02-11T08:54:41.928Z,21.58
2023-02-11T08:56:43.785Z,21.05
2023-02-11T08:58:45.920Z,20.35
2023-02-11T09:00:48.447Z,21.25
2023-02-11T09:02:50.121Z,21.17
2023-02-11T09:04:51.500Z,21.60
2023-02-11T09:06:52.886Z,22.48
2023-02-11T09:08:57.190Z,21.77
2023-02-11T09:10:58.773Z,22.67
2023-02-11T09:13:00.163Z,21.75
2023-02-11T09:15:01.794Z,22.20
2023-02-11T09:17:03.207Z,22.15
2023-02-11T09:19:05.336Z,23.85
2023-02-11T09:21:08.803Z,23.55
2023-02-11T09:23:11.113Z,21.67
2023-02-11T09:25:12.526Z,23.05
2023-02-11T09:27:15.809Z,21.83
2023-02-11T09:29:17.195Z,22.70
2023-02-11T09:31:21.959Z,22.45
2023-02-11T09:33:23.501Z,21.88
2023-02-11T09:35:24.936Z,22.17
2023-02-11T09:37:26.416Z,22.20
2023-02-11T09:39:29.184Z,22.88
2023-02-11T09:41:42.534Z,21.67
2023-02-11T09:45:50.171Z,22.50
2023-02-11T09:47:58.534Z,22.98
2023-02-11T09:50:15.693Z,22.63
2023-02-11T09:52:26.138Z,20.40
2023-02-11T09:54:41.223Z,22.48
2023-02-11T09:56:42.626Z,20.25
2023-02-11T09:58:45.060Z,22.23
2023-02-11T10:01:11.069Z,21.25
2023-02-11T10:03:21.475Z,22.75
2023-02-11T10:05:44.529Z,23.38
2023-02-11T10:08:30.536Z,23.48
2023-02-11T10:10:57.130Z,22.48
2023-02-11T10:13:19.800Z,22.75
2023-02-11T10:15:49.809Z,23.77
2023-02-11T10:18:19.321Z,22.27
2023-02-11T10:20:29.605Z,22.60
2023-02-11T10:22:39.331Z,22.45
2023-02-11T10:24:48.447Z,23.25
2023-02-11T10:26:51.888Z,21.95
2023-02-11T10:28:55.896Z,22.42
2023-02-11T10:31:00.519Z,23.90
2023-02-11T10:33:31.355Z,24.58
2023-02-11T10:35:33.098Z,23.77
2023-02-11T10:37:34.472Z,22.33
2023-02-11T10:39:35.840Z,21.55
2023-02-11T10:41:47.489Z,21.73
2023-02-11T10:43:50.395Z,20.70
2023-02-11T10:45:53.553Z,22.00
2023-02-11T10:47:55.352Z,22.75
2023-02-11T10:50:03.230Z,22.35
2023-02-11T10:52:23.678Z,21.77
2023-02-11T10:54:25.045Z,23.25
2023-02-11T10:56:28.234Z,21.48
2023-02-11T10:58:32.567Z,22.35
2023-02-11T11:00:40.512Z,22.60
2023-02-11T11:02:44.448Z,22.92
2023-02-11T11:04:47.452Z,22.17
2023-02-11T11:06:49.016Z,23.20
2023-02-11T11:08:51.781Z,23.00
2023-02-11T11:11:05.586Z,21.98
2023-02-11T11:13:22.943Z,22.13
2023-02-11T11:15:29.575Z,22.85
2023-02-11T11:17:31.097Z,23.27
2023-02-11T11:19:33.107Z,22.30
2023-02-11T11:21:36.566Z,22.67
2023-02-11T11:23:39.726Z,22.45
2023-02-11T11:25:45.879Z,21.55
2023-02-11T11:27:52.925Z,23.08
2023-02-11T11:32:01.288Z,20.75
2023-02-11T11:34:28.455Z,22.38
2023-02-11T11:36:37.560Z,20.63
2023-02-11T11:38:48.988Z,22.60
2023-02-11T11:41:20.781Z,22.95
2023-02-11T11:43:23.454Z,20.65
2023-02-11T11:45:26.861Z,23.05
2023-02-11T11:47:44.068Z,22.90
2023-02-11T11:49:51.493Z,24.40
2023-02-11T11:52:11.801Z,23.15
2023-02-11T11:54:17.555Z,23.95
2023-02-11T11:56:25.080Z,24.23
2023-02-11T11:58:28.954Z,23.10
2023-02-11T12:00:51.182Z,26.05
2023-02-11T12:03:31.708Z,24.30
2023-02-11T12:05:45.312Z,23.60
2023-02-11T12:08:11.194Z,24.75
2023-02-11T12:10:40.045Z,25.02
2023-02-11T12:12:52.877Z,23.65
2023-02-11T12:15:19.046Z,25.60
2023-02-11T12:17:41.612Z,23.35
2023-02-11T12:20:18.634Z,24.42
2023-02-11T12:22:45.052Z,25.13
2023-02-11T12:25:06.207Z,23.88
2023-02-11T12:27:16.715Z,23.63
2023-02-11T12:29:55.374Z,24.45
2023-02-11T12:32:21.310Z,24.10
2023-02-11T12:36:41.934Z,23.20
2023-02-11T12:39:10.305Z,24.77
2023-02-11T12:41:14.650Z,23.27
2023-02-11T12:43:22.180Z,25.15
2023-02-11T12:45:41.957Z,26.05
2023-02-11T12:48:22.648Z,25.23
2023-02-11T12:50:34.202Z,26.67
2023-02-11T12:52:47.168Z,26.02
2023-02-11T12:54:58.080Z,26.40
2023-02-11T12:57:21.567Z,27.67
2023-02-11T13:00:04.987Z,26.17
2023-02-11T13:02:18.282Z,26.25
2023-02-11T13:04:28.799Z,26.42
2023-02-11T13:06:38.662Z,26.80
2023-02-11T13:08:53.952Z,27.63
2023-02-11T13:11:02.455Z,25.92
2023-02-11T13:13:18.418Z,26.92
2023-02-11T13:15:19.844Z,28.80
2023-02-11T13:17:41.318Z,26.73
2023-02-11T13:19:58.111Z,26.48
2023-02-11T13:22:33.555Z,26.77
2023-02-11T13:24:55.762Z,26.30
2023-02-11T13:27:20.518Z,28.13
2023-02-11T13:30:01.209Z,27.60
2023-02-11T13:32:11.621Z,27.33
2023-02-11T13:34:51.730Z,26.67
2023-02-11T13:36:57.599Z,28.08
2023-02-11T13:39:02.415Z,29.20
2023-02-11T13:41:19.349Z,28.60
2023-02-11T13:43:23.543Z,28.58
2023-02-11T13:45:28.934Z,28.33
2023-02-11T13:47:33.475Z,28.85
2023-02-11T13:49:41.487Z,29.08
2023-02-11T13:51:43.216Z,28.00
2023-02-11T13:53:51.438Z,27.80
2023-02-11T13:56:06.202Z,29.98
2023-02-11T13:58:07.508Z,29.23
2023-02-11T14:00:26.933Z,28.90
2023-02-11T14:02:52.858Z,28.05
2023-02-11T14:05:29.794Z,28.70
2023-02-11T14:08:11.305Z,29.00
2023-02-11T14:10:43.628Z,29.45
2023-02-11T14:13:05.386Z,28.73
2023-02-11T14:15:12.794Z,30.02
2023-02-11T14:17:18.857Z,28.70
2023-02-11T14:19:43.529Z,27.98
2023-02-11T14:21:46.695Z,28.17
2023-02-11T14:23:48.815Z,28.83
2023-02-11T14:26:38.018Z,30.10
2023-02-11T14:28:44.689Z,29.73
2023-02-11T14:30:56.486Z,29.35
2023-02-11T14:33:23.699Z,29.80
2023-02-11T14:35:28.065Z,30.33
2023-02-11T14:37:52.165Z,28.48
2023-02-11T14:40:30.468Z,29.27
2023-02-11T14:42:31.947Z,28.30
2023-02-11T14:44:34.829Z,27.63
2023-02-11T14:46:36.560Z,28.50
2023-02-11T14:48:43.107Z,29.67
2023-02-11T14:50:48.312Z,28.65
2023-02-11T14:52:51.063Z,29.98
2023-02-11T14:55:09.070Z,27.50
2023-02-11T14:57:15.867Z,29.55
2023-02-11T14:59:19.969Z,27.65
2023-02-11T15:01:28.521Z,27.52
2023-02-11T15:03:33.164Z,28.15
2023-02-11T15:05:34.791Z,27.33
2023-02-11T15:07:36.179Z,29.67
2023-02-11T15:09:41.715Z,28.48
2023-02-11T15:11:46.668Z,27.77
2023-02-11T15:13:50.301Z,28.85
2023-02-11T15:15:55.677Z,29.17
2023-02-11T15:18:01.249Z,29.73
2023-02-11T15:20:03.190Z,27.98
2023-02-11T15:22:10.519Z,28.20
2023-02-11T15:24:31.258Z,28.98
2023-02-11T15:26:33.080Z,26.52
2023-02-11T15:28:35.514Z,28.77
2023-02-11T15:30:36.906Z,28.92
2023-02-11T15:32:45.065Z,28.88
2023-02-11T15:34:47.563Z,28.17
2023-02-11T15:36:48.972Z,29.77
2023-02-11T15:39:17.984Z,28.58
2023-02-11T15:41:37.947Z,27.45
2023-02-11T15:43:51.000Z,28.10
2023-02-11T15:45:52.331Z,26.08
2023-02-11T15:47:58.079Z,26.05
2023-02-11T15:49:59.822Z,27.10
2023-02-11T15:52:02.713Z,27.08
2023-02-11T15:54:15.140Z,28.67
2023-02-11T15:56:19.235Z,27.40
2023-02-11T15:58:22.696Z,27.08
2023-02-11T16:00:31.501Z,28.17
2023-02-11T16:02:36.419Z,26.83
2023-02-11T16:04:38.044Z,27.17
2023-02-11T16:06:42.255Z,27.27
2023-02-11T16:08:59.797Z,26.92
2023-02-11T16:11:08.496Z,27.90
2023-02-11T16:13:09.830Z,26.55
2023-02-11T16:15:30.695Z,26.45
2023-02-11T16:17:32.136Z,26.85
2023-02-11T16:19:35.873Z,26.58
2023-02-11T16:21:45.234Z,25.05
2023-02-11T16:23:54.202Z,28.45
2023-02-11T16:26:01.905Z,26.30
2023-02-11T16:28:03.518Z,25.67
2023-02-11T16:30:05.955Z,26.55
2023-02-11T16:32:10.413Z,26.20
2023-02-11T16:34:29.861Z,27.15
2023-02-11T16:36:31.209Z,27.15
2023-02-11T16:38:32.603Z,27.88
2023-02-11T16:40:33.968Z,26.48
2023-02-11T16:42:35.387Z,24.65
2023-02-11T16:44:36.798Z,26.63
2023-02-11T16:46:38.622Z,25.70
2023-02-11T16:48:40.115Z,24.60
2023-02-11T16:50:46.507Z,25.10
2023-02-11T16:52:48.357Z,24.02
2023-02-11T16:54:50.058Z,24.33
2023-02-11T16:56:51.488Z,24.70
2023-02-11T16:58:52.913Z,25.73
2023-02-11T17:00:56.888Z,25.50
2023-02-11T17:02:58.350Z,26.17
2023-02-11T17:05:02.437Z,23.95
2023-02-11T17:07:03.845Z,25.48
2023-02-11T17:09:06.676Z,25.08
2023-02-11T17:11:08.071Z,24.13
2023-02-11T17:13:09.469Z,25.90
2023-02-11T17:15:10.932Z,24.65
2023-02-11T17:17:12.872Z,23.83
2023-02-11T17:19:17.084Z,23.30
2023-02-11T17:21:18.554Z,23.73
2023-02-11T17:23:19.952Z,23.98
2023-02-11T17:25:23.359Z,23.52
2023-02-11T17:27:25.085Z,25.08
2023-02-11T17:29:27.073Z,22.52
2023-02-11T17:31:28.500Z,23.42
2023-02-11T17:33:29.900Z,24.45
2023-02-11T17:35:31.288Z,22.63
2023-02-11T17:37:32.820Z,23.50
2023-02-11T17:39:38.711Z,23.15
2023-02-11T17:41:40.567Z,23.50
2023-02-11T17:43:42.606Z,23.75
2023-02-11T17:45:44.087Z,23.15
2023-02-11T17:47:46.041Z,22.95
2023-02-11T17:49:47.381Z,22.90
2023-02-11T17:51:48.783Z,24.55
2023-02-11T17:53:50.444Z,22.63
2023-02-11T17:55:52.081Z,22.63
2023-02-11T17:57:53.680Z,22.83
2023-02-11T17:59:55.025Z,23.90
2023-02-11T18:01:56.406Z,21.33
2023-02-11T18:03:57.874Z,21.90
2023-02-11T18:06:01.613Z,22.38
2023-02-11T18:08:05.413Z,22.88
2023-02-11T18:10:08.320Z,23.10
2023-02-11T18:12:10.651Z,23.00
2023-02-11T18:14:14.042Z,22.27
2023-02-11T18:16:15.816Z,21.60
2023-02-11T18:18:17.400Z,21.67
2023-02-11T18:20:19.781Z,22.67
2023-02-11T18:22:21.184Z,23.80
2023-02-11T18:24:22.652Z,23.00
2023-02-11T18:26:28.139Z,22.17
2023-02-11T18:28:29.663Z,23.77
2023-02-11T18:30:31.220Z,23.70
2023-02-11T18:32:32.675Z,26.10
2023-02-11T18:34:34.105Z,25.45
2023-02-11T18:36:36.376Z,24.27
2023-02-11T18:38:38.149Z,25.73
2023-02-11T18:40:40.652Z,25.02
2023-02-11T18:42:42.738Z,24.02
2023-02-11T18:44:44.272Z,24.60
2023-02-11T18:46:45.656Z,23.33
2023-02-11T18:48:47.073Z,25.98
2023-02-11T18:50:48.735Z,25.52
2023-02-11T18:52:50.115Z,23.77
2023-02-11T18:54:52.273Z,24.85
2023-02-11T18:56:53.696Z,25.13
2023-02-11T18:58:56.488Z,25.90
2023-02-11T19:00:57.955Z,24.90
2023-02-11T19:03:01.316Z,25.52
2023-02-11T19:05:06.311Z,25.45
2023-02-11T19:07:07.719Z,26.38
2023-02-11T19:09:11.204Z,25.67
2023-02-11T19:11:14.481Z,26.38
2023-02-11T19:13:15.900Z,27.67
2023-02-11T19:15:17.300Z,24.65
2023-02-11T19:17:18.726Z,25.58
2023-02-11T19:19:22.194Z,24.63
2023-02-11T19:21:23.579Z,25.73
2023-02-11T19:23:24.935Z,25.42
2023-02-11T19:25:26.803Z,25.95
2023-02-11T19:27:28.204Z,26.17
2023-02-11T19:29:33.263Z,26.40
2023-02-11T19:31:34.951Z,27.33
2023-02-11T19:33:36.875Z,26.70
2023-02-11T19:35:38.276Z,26.48
2023-02-11T19:37:39.814Z,26.98
2023-02-11T19:39:42.673Z,26.58
2023-02-11T19:41:44.335Z,28.02
2023-02-11T19:43:47.713Z,28.35
2023-02-11T19:45:49.203Z,26.92
2023-02-11T19:47:55.290Z,25.88
2023-02-11T19:49:56.703Z,27.38
2023-02-11T19:51:58.394Z,27.95
2023-02-11T19:54:00.396Z,28.17
2023-02-11T19:56:03.029Z,26.02
2023-02-11T19:58:04.472Z,27.27
2023-02-11T20:00:06.774Z,28.80
2023-02-11T20:02:10.230Z,30.45
2023-02-11T20:04:13.124Z,29.55
2023-02-11T20:06:17.576Z,28.02
2023-02-11T20:08:18.978Z,27.50
2023-02-11T20:10:20.323Z,28.05
2023-02-11T20:12:21.753Z,28.42
2023-02-11T20:14:23.390Z,27.75
2023-02-11T20:16:44.662Z,28.50
2023-02-11T20:18:49.122Z,28.17
2023-02-11T20:20:50.535Z,28.75
2023-02-11T20:22:52.420Z,27.50
2023-02-11T20:24:53.858Z,27.52
2023-02-11T20:26:55.863Z,29.17
2023-02-11T20:29:02.100Z,28.23
2023-02-11T20:31:04.904Z,29.98
2023-02-11T20:33:06.473Z,28.65
2023-02-11T20:35:08.585Z,29.55
2023-02-11T20:37:10.370Z,27.83
2023-02-11T20:39:16.941Z,29.63
2023-02-11T20:41:24.669Z,29.15
2023-02-11T20:43:26.042Z,29.35
2023-02-11T20:45:27.437Z,28.27
2023-02-11T20:47:28.808Z,31.27
2023-02-11T20:49:30.451Z,29.55
2023-02-11T20:51:34.236Z,29.42
2023-02-11T20:53:37.731Z,29.48
2023-02-11T20:55:39.714Z,29.38
2023-02-11T20:57:41.121Z,29.75
2023-02-11T20:59:42.609Z,29.20
2023-02-11T21:01:46.778Z,29.33
2023-02-11T21:03:58.880Z,29.08
2023-02-11T21:06:00.795Z,28.45
2023-02-11T21:08:02.216Z,30.25
2023-02-11T21:10:04.241Z,30.08
2023-02-11T21:12:05.986Z,28.67
2023-02-11T21:14:07.687Z,30.08
2023-02-11T21:16:13.365Z,31.20
2023-02-11T21:18:14.799Z,30.65
2023-02-11T21:20:16.315Z,30.50
2023-02-11T21:22:17.699Z,31.35
2023-02-11T21:24:19.144Z,30.40
2023-02-11T21:26:20.606Z,29.73
2023-02-11T21:28:26.372Z,29.38
2023-02-11T21:30:27.813Z,29.67
2023-02-11T21:32:29.424Z,29.20
2023-02-11T21:34:30.814Z,31.35
2023-02-11T21:36:32.349Z,28.63
2023-02-11T21:38:34.670Z,30.23
2023-02-11T21:40:36.024Z,29.90
2023-02-11T21:42:37.439Z,29.65
2023-02-11T21:44:38.899Z,31.45
2023-02-11T21:46:40.601Z,30.42
2023-02-11T21:48:42.488Z,30.08
2023-02-11T21:50:46.558Z,29.90
2023-02-11T21:52:48.001Z,30.20
2023-02-11T21:54:50.438Z,29.95
2023-02-11T21:56:51.852Z,28.85
2023-02-11T21:58:54.715Z,30.65
2023-02-11T22:00:56.185Z,29.80
2023-02-11T22:02:58.651Z,29.20
2023-02-11T22:05:00.875Z,29.08
2023-02-11T22:07:03.411Z,31.33
2023-02-11T22:09:08.298Z,29.77
2023-02-11T22:11:12.228Z,28.63
2023-02-11T22:13:13.635Z,29.98
2023-02-11T22:15:15.041Z,27.88
2023-02-11T22:17:16.515Z,29.20
2023-02-11T22:19:18.764Z,29.23
2023-02-11T22:21:22.703Z,29.25
2023-02-11T22:23:24.195Z,27.52
2023-02-11T22:25:25.596Z,30.85
2023-02-11T22:27:27.016Z,27.77
2023-02-11T22:29:28.441Z,27.45
2023-02-11T22:31:33.043Z,27.58
2023-02-11T22:33:34.532Z,28.30
2023-02-11T22:35:35.902Z,26.70
2023-02-11T22:37:37.393Z,27.50
2023-02-11T22:39:38.793Z,29.02
2023-02-11T22:41:41.562Z,28.10
2023-02-11T22:43:43.864Z,27.17
2023-02-11T22:45:45.258Z,27.45
2023-02-11T22:47:46.640Z,27.30
2023-02-11T22:49:48.135Z,26.70
2023-02-11T22:51:49.525Z,27.35
2023-02-11T22:54:02.139Z,28.27
2023-02-11T22:56:05.655Z,27.30
2023-02-11T22:58:07.187Z,26.90
2023-02-11T23:00:09.766Z,28.63
2023-02-11T23:02:11.284Z,26.90
2023-02-11T23:04:15.536Z,26.60
2023-02-11T23:06:17.380Z,26.48
2023-02-11T23:08:18.775Z,27.23
2023-02-11T23:10:20.326Z,26.08
2023-02-11T23:12:21.716Z,27.10
2023-02-11T23:14:23.375Z,24.75
2023-02-11T23:16:34.271Z,26.48
2023-02-11T23:18:38.148Z,26.75
2023-02-11T23:20:42.131Z,26.58
2023-02-11T23:22:43.512Z,26.27
2023-02-11T23:24:44.898Z,25.98
2023-02-11T23:26:46.319Z,26.42
2023-02-11T23:28:47.849Z,25.17
2023-02-11T23:30:49.273Z,25.17
2023-02-11T23:32:51.690Z,26.52
2023-02-11T23:34:53.091Z,24.80
2023-02-11T23:36:54.750Z,24.80
2023-02-11T23:38:56.342Z,24.30
2023-02-11T23:40:57.721Z,26.05
2023-02-11T23:42:59.132Z,26.30
2023-02-11T23:45:01.404Z,25.83
2023-02-11T23:47:02.797Z,27.13
2023-02-11T23:49:04.406Z,25.23
2023-02-11T23:51:06.600Z,25.27
2023-02-11T23:53:08.000Z,27.80
2023-02-11T23:55:09.792Z,23.20
2023-02-11T23:57:11.167Z,24.67
2023-02-11T23:59:13.004Z,24.98
